createdAt,value
2022-11-21T00:02:26.176Z,8.01
2022-11-21T00:04:55.780Z,8.04
2022-11-21T00:07:24.072Z,8.03
2022-11-21T00:09:52.378Z,8.04
2022-11-21T00:12:20.605Z,8.02
2022-11-21T00:14:48.811Z,8.04
2022-11-21T00:17:17.084Z,8.03
2022-11-21T00:19:45.517Z,7.99
2022-11-21T00:22:15.134Z,8.00
2022-11-21T00:24:43.363Z,7.99
2022-11-21T00:27:11.583Z,8.00
2022-11-21T00:29:39.875Z,8.01
2022-11-21T00:32:08.239Z,7.98
2022-11-21T00:34:36.497Z,7.99
2022-11-21T00:37:04.764Z,8.01
2022-11-21T00:39:34.416Z,8.00
2022-11-21T00:42:02.625Z,7.99
2022-11-21T00:44:30.923Z,8.02
2022-11-21T00:46:59.167Z,8.00
2022-11-21T00:49:27.502Z,8.01
2022-11-21T00:51:55.769Z,8.02
2022-11-21T00:54:24.098Z,8.00
2022-11-21T00:56:53.725Z,8.01
2022-11-21T00:59:22.123Z,8.02
2022-11-21T01:01:50.355Z,8.04
2022-11-21T01:04:18.634Z,8.05
2022-11-21T01:06:47.026Z,8.03
2022-11-21T01:09:15.346Z,8.01
2022-11-21T01:11:43.584Z,8.03
2022-11-21T01:14:13.144Z,8.05
2022-11-21T01:16:41.346Z,8.03
2022-11-21T01:19:09.827Z,8.04
2022-11-21T01:21:38.170Z,8.07
2022-11-21T01:24:06.909Z,8.05
2022-11-21T01:26:35.154Z,8.08
2022-11-21T01:29:03.399Z,8.07
2022-11-21T01:31:33.275Z,8.07
2022-11-21T01:34:02.886Z,8.08
2022-11-21T01:36:33.802Z,8.09
2022-11-21T01:39:06.808Z,8.10
2022-11-21T01:41:38.258Z,8.10
2022-11-21T01:44:22.202Z,8.07
2022-11-21T01:46:53.223Z,8.07
2022-11-21T01:49:26.251Z,8.08
2022-11-21T01:51:59.353Z,8.07
2022-11-21T01:54:34.024Z,8.09
2022-11-21T01:57:07.029Z,8.11
2022-11-21T01:59:39.818Z,8.09
2022-11-21T02:02:12.215Z,8.08
2022-11-21T02:04:43.023Z,8.09
2022-11-21T02:07:13.379Z,8.06
2022-11-21T02:09:45.874Z,8.08
2022-11-21T02:12:20.104Z,8.08
2022-11-21T02:14:49.954Z,8.09
2022-11-21T02:17:21.014Z,8.10
2022-11-21T02:19:56.042Z,8.10
2022-11-21T02:22:34.029Z,8.09
2022-11-21T02:25:07.807Z,8.12
2022-11-21T02:27:36.328Z,8.15
2022-11-21T02:30:07.394Z,8.17
2022-11-21T02:32:40.841Z,8.14
2022-11-21T02:35:10.369Z,8.19
2022-11-21T02:37:39.321Z,8.18
2022-11-21T02:40:13.830Z,8.20
2022-11-21T02:42:52.712Z,8.20
2022-11-21T02:45:26.312Z,8.19
2022-11-21T02:48:03.418Z,8.17
2022-11-21T02:50:34.717Z,8.18
2022-11-21T02:53:04.534Z,8.16
2022-11-21T02:55:34.327Z,8.16
2022-11-21T02:58:05.162Z,8.13
2022-11-21T03:00:35.468Z,8.10
2022-11-21T03:03:04.360Z,8.05
2022-11-21T03:05:33.175Z,8.01
2022-11-21T03:08:01.524Z,8.01
2022-11-21T03:10:29.809Z,8.01
2022-11-21T03:13:01.861Z,8.01
2022-11-21T03:15:32.247Z,7.99
2022-11-21T03:18:02.779Z,7.99
2022-11-21T03:20:31.487Z,7.97
2022-11-21T03:22:59.962Z,7.97
2022-11-21T03:25:28.261Z,7.97
2022-11-21T03:27:58.137Z,7.97
2022-11-21T03:30:27.890Z,7.95
2022-11-21T03:32:57.477Z,7.94
2022-11-21T03:35:26.310Z,7.94
2022-11-21T03:37:54.723Z,7.95
2022-11-21T03:40:22.997Z,7.95
2022-11-21T03:42:51.964Z,7.94
2022-11-21T03:45:21.599Z,7.93
2022-11-21T03:47:49.891Z,7.95
2022-11-21T03:50:20.980Z,7.95
2022-11-21T03:52:49.251Z,7.95
2022-11-21T03:55:17.614Z,7.93
2022-11-21T03:57:45.841Z,7.93
2022-11-21T04:00:16.614Z,7.92
2022-11-21T04:02:46.210Z,7.91
2022-11-21T04:05:14.444Z,7.91
2022-11-21T04:07:42.727Z,7.91
2022-11-21T04:10:11.648Z,7.89
2022-11-21T04:12:39.907Z,7.90
2022-11-21T04:15:13.427Z,7.89
2022-11-21T04:17:42.290Z,7.86
2022-11-21T04:20:12.946Z,7.86
2022-11-21T04:22:41.200Z,7.87
2022-11-21T04:25:10.091Z,7.85
2022-11-21T04:27:38.306Z,7.85
2022-11-21T04:30:08.117Z,7.85
2022-11-21T04:32:36.383Z,7.86
2022-11-21T04:35:05.188Z,7.85
2022-11-21T04:37:34.827Z,7.87
2022-11-21T04:40:03.096Z,7.89
2022-11-21T04:42:31.375Z,7.90
2022-11-21T04:44:59.654Z,7.92
2022-11-21T04:47:28.022Z,7.92
2022-11-21T04:49:56.460Z,7.94
2022-11-21T04:52:24.742Z,7.96
2022-11-21T04:54:54.403Z,7.94
2022-11-21T04:57:22.645Z,7.94
2022-11-21T04:59:50.902Z,7.95
2022-11-21T05:02:19.123Z,7.95
2022-11-21T05:04:47.431Z,7.96
2022-11-21T05:07:16.556Z,7.96
2022-11-21T05:09:45.120Z,7.95
2022-11-21T05:12:32.233Z,7.94
2022-11-21T05:15:00.476Z,7.92
2022-11-21T05:17:29.969Z,7.92
2022-11-21T05:19:58.437Z,7.92
2022-11-21T05:22:26.694Z,7.94
2022-11-21T05:24:54.983Z,7.94
2022-11-21T05:27:24.570Z,7.88
2022-11-21T05:29:53.350Z,7.89
2022-11-21T05:32:21.602Z,7.88
2022-11-21T05:34:49.842Z,7.89
2022-11-21T05:37:18.807Z,7.83
2022-11-21T05:39:47.013Z,7.84
2022-11-21T05:42:15.384Z,7.85
2022-11-21T05:44:43.963Z,7.87
2022-11-21T05:47:12.204Z,7.89
2022-11-21T05:49:40.524Z,7.91
2022-11-21T05:52:08.863Z,7.92
2022-11-21T05:54:37.144Z,7.95
2022-11-21T05:57:05.582Z,7.97
2022-11-21T05:59:33.883Z,7.98
2022-11-21T06:02:35.417Z,7.97
2022-11-21T06:05:03.706Z,7.97
2022-11-21T06:07:31.986Z,7.98
2022-11-21T06:10:00.277Z,8.01
2022-11-21T06:12:28.464Z,8.01
2022-11-21T06:14:56.719Z,8.02
2022-11-21T06:17:26.348Z,8.04
2022-11-21T06:19:54.624Z,8.07
2022-11-21T06:22:22.986Z,8.09
2022-11-21T06:24:51.201Z,8.11
2022-11-21T06:27:19.431Z,8.12
2022-11-21T06:29:47.698Z,8.12
2022-11-21T06:32:16.020Z,8.12
2022-11-21T06:34:45.668Z,8.12
2022-11-21T06:37:13.944Z,8.12
2022-11-21T06:39:42.158Z,8.12
2022-11-21T06:42:10.423Z,8.12
2022-11-21T06:44:38.651Z,8.14
2022-11-21T06:47:07.045Z,8.14
2022-11-21T06:49:35.316Z,8.16
2022-11-21T06:52:05.257Z,8.17
2022-11-21T06:54:33.834Z,8.18
2022-11-21T06:57:02.403Z,8.18
2022-11-21T06:59:30.670Z,8.20
2022-11-21T07:01:58.918Z,8.22
2022-11-21T07:04:27.632Z,8.23
2022-11-21T07:06:56.207Z,8.24
2022-11-21T07:09:33.158Z,8.25
2022-11-21T07:12:22.337Z,8.27
2022-11-21T07:14:49.693Z,8.25
2022-11-21T07:17:18.031Z,8.27
2022-11-21T07:19:46.332Z,8.27
2022-11-21T07:22:14.569Z,8.26
2022-11-21T07:24:44.190Z,8.28
2022-11-21T07:27:12.424Z,8.26
2022-11-21T07:29:40.613Z,8.21
2022-11-21T07:32:09.008Z,8.24
2022-11-21T07:34:37.298Z,8.24
2022-11-21T07:37:05.595Z,8.27
2022-11-21T07:39:33.855Z,8.28
2022-11-21T07:42:03.550Z,8.32
2022-11-21T07:44:31.767Z,8.33
2022-11-21T07:47:00.012Z,8.35
2022-11-21T07:49:28.671Z,8.37
2022-11-21T07:51:57.068Z,8.41
2022-11-21T07:54:25.408Z,8.42
2022-11-21T07:56:53.596Z,8.43
2022-11-21T07:59:23.223Z,8.42
2022-11-21T08:01:52.854Z,8.44
2022-11-21T08:04:21.149Z,8.48
2022-11-21T08:06:49.469Z,8.50
2022-11-21T08:09:17.748Z,8.51
2022-11-21T08:11:46.015Z,8.55
2022-11-21T08:14:14.299Z,8.55
2022-11-21T08:16:43.870Z,8.60
2022-11-21T08:19:12.120Z,8.62
2022-11-21T08:21:40.386Z,8.65
2022-11-21T08:24:13.553Z,8.70
2022-11-21T08:26:42.455Z,8.72
2022-11-21T08:29:11.660Z,8.77
2022-11-21T08:31:40.544Z,8.81
2022-11-21T08:34:14.425Z,8.84
2022-11-21T08:36:43.035Z,8.86
2022-11-21T08:39:11.302Z,8.90
2022-11-21T08:41:56.895Z,8.93
2022-11-21T08:44:25.202Z,8.96
2022-11-21T08:46:53.460Z,8.98
2022-11-21T08:49:23.087Z,9.04
2022-11-21T08:51:51.642Z,9.07
2022-11-21T08:54:20.995Z,9.08
2022-11-21T08:56:49.490Z,9.12
2022-11-21T08:59:18.109Z,9.16
2022-11-21T09:01:46.676Z,9.18
2022-11-21T09:04:15.137Z,9.22
2022-11-21T09:06:44.776Z,9.27
2022-11-21T09:09:13.219Z,9.27
2022-11-21T09:11:41.504Z,9.28
2022-11-21T09:14:27.646Z,9.33
2022-11-21T09:17:13.436Z,9.36
2022-11-21T09:19:41.736Z,9.39
2022-11-21T09:22:11.404Z,9.43
2022-11-21T09:24:39.691Z,9.45
2022-11-21T09:27:07.938Z,9.50
2022-11-21T09:29:36.147Z,9.53
2022-11-21T09:32:04.543Z,9.57
2022-11-21T09:34:32.821Z,9.60
2022-11-21T09:37:01.138Z,9.63
2022-11-21T09:39:30.959Z,9.64
2022-11-21T09:42:16.249Z,9.63
2022-11-21T09:45:02.885Z,9.65
2022-11-21T09:47:33.714Z,9.66
2022-11-21T09:50:04.248Z,9.64
2022-11-21T09:52:42.632Z,9.62
2022-11-21T09:57:56.134Z,9.62
2022-11-21T10:00:26.567Z,9.64
2022-11-21T10:02:55.884Z,9.65
2022-11-21T10:05:34.714Z,9.66
2022-11-21T10:08:14.516Z,9.70
2022-11-21T10:10:56.598Z,9.70
2022-11-21T10:13:40.150Z,9.69
2022-11-21T10:16:17.059Z,9.73
2022-11-21T10:19:43.485Z,9.70
2022-11-21T10:22:49.320Z,9.73
2022-11-21T10:25:27.263Z,9.73
2022-11-21T10:28:01.801Z,9.81
2022-11-21T10:30:30.363Z,9.86
2022-11-21T10:33:03.386Z,9.92
2022-11-21T10:35:40.771Z,9.93
2022-11-21T10:38:23.716Z,9.97
2022-11-21T10:40:56.278Z,10.04
2022-11-21T10:43:54.067Z,10.06
2022-11-21T10:46:22.380Z,10.10
2022-11-21T10:48:58.040Z,10.04
2022-11-21T10:51:49.011Z,10.12
2022-11-21T10:54:35.315Z,10.16
2022-11-21T10:57:12.238Z,10.21
2022-11-21T10:59:42.160Z,10.24
2022-11-21T11:02:25.394Z,10.29
2022-11-21T11:05:20.490Z,10.32
2022-11-21T11:08:12.359Z,10.36
2022-11-21T11:10:42.683Z,10.39
2022-11-21T11:13:49.867Z,10.45
2022-11-21T11:16:22.738Z,10.48
2022-11-21T11:18:59.352Z,10.50
2022-11-21T11:21:30.331Z,10.51
2022-11-21T11:24:22.393Z,10.49
2022-11-21T11:27:00.404Z,10.53
2022-11-21T11:29:31.093Z,10.55
2022-11-21T11:32:04.810Z,10.57
2022-11-21T11:34:42.384Z,10.58
2022-11-21T11:37:21.942Z,10.59
2022-11-21T11:40:01.172Z,10.59
2022-11-21T11:43:24.216Z,10.62
2022-11-21T11:46:48.569Z,10.62
2022-11-21T11:49:26.276Z,10.64
2022-11-21T11:51:58.215Z,10.67
2022-11-21T11:54:33.035Z,10.69
2022-11-21T11:57:01.437Z,10.74
2022-11-21T11:59:38.570Z,10.77
2022-11-21T12:02:16.951Z,10.80
2022-11-21T12:04:53.649Z,10.82
2022-11-21T12:08:38.929Z,10.86
2022-11-21T12:10:20.734Z,10.90
2022-11-21T12:12:53.405Z,10.95
2022-11-21T12:15:43.854Z,10.96
2022-11-21T12:18:23.256Z,11.00
2022-11-21T12:21:01.359Z,11.05
2022-11-21T12:23:34.144Z,11.07
2022-11-21T12:26:21.681Z,11.06
2022-11-21T12:29:05.846Z,11.05
2022-11-21T12:31:47.209Z,11.06
2022-11-21T12:34:33.842Z,11.06
2022-11-21T12:37:10.702Z,11.07
2022-11-21T12:40:00.150Z,11.06
2022-11-21T12:42:52.511Z,11.06
2022-11-21T12:45:33.688Z,11.06
2022-11-21T12:48:52.062Z,11.04
2022-11-21T12:52:26.632Z,11.01
2022-11-21T12:55:09.929Z,10.99
2022-11-21T12:57:51.812Z,10.99
2022-11-21T13:00:27.187Z,11.00
2022-11-21T13:03:31.102Z,11.01
2022-11-21T13:06:00.814Z,11.01
2022-11-21T13:08:36.188Z,11.00
2022-11-21T13:11:30.969Z,11.00
2022-11-21T13:14:07.936Z,10.97
2022-11-21T13:16:44.946Z,10.95
2022-11-21T13:19:21.962Z,10.92
2022-11-21T13:21:52.569Z,10.92
2022-11-21T13:25:00.404Z,10.86
2022-11-21T13:27:38.895Z,10.83
2022-11-21T13:30:25.001Z,10.78
2022-11-21T13:32:54.867Z,10.78
2022-11-21T13:36:06.740Z,10.76
2022-11-21T13:39:30.036Z,10.74
2022-11-21T13:42:30.240Z,10.72
2022-11-21T13:44:59.496Z,10.73
2022-11-21T13:48:18.927Z,10.67
2022-11-21T13:51:24.447Z,10.65
2022-11-21T13:54:30.705Z,10.63
2022-11-21T13:57:14.040Z,10.61
2022-11-21T14:00:04.696Z,10.62
2022-11-21T14:03:24.434Z,10.62
2022-11-21T14:06:36.222Z,10.58
2022-11-21T14:09:28.161Z,10.58
2022-11-21T14:12:01.918Z,10.58
2022-11-21T14:14:38.189Z,10.59
2022-11-21T14:17:31.343Z,10.57
2022-11-21T14:20:04.058Z,10.56
2022-11-21T14:22:45.246Z,10.55
2022-11-21T14:25:18.978Z,10.55
2022-11-21T14:27:52.184Z,10.53
2022-11-21T14:30:34.698Z,10.51
2022-11-21T14:33:26.700Z,10.49
2022-11-21T14:36:00.131Z,10.48
2022-11-21T14:38:30.735Z,10.46
2022-11-21T14:41:27.366Z,10.44
2022-11-21T14:44:16.222Z,10.39
2022-11-21T14:46:47.436Z,10.37
2022-11-21T14:49:26.753Z,10.35
2022-11-21T14:52:03.969Z,10.33
2022-11-21T14:54:36.200Z,10.30
2022-11-21T14:57:09.564Z,10.27
2022-11-21T14:59:43.852Z,10.23
2022-11-21T15:02:16.141Z,10.19
2022-11-21T15:04:45.785Z,10.16
2022-11-21T15:07:28.436Z,10.12
2022-11-21T15:12:57.411Z,10.01
2022-11-21T15:15:32.227Z,9.96
2022-11-21T15:18:26.406Z,9.92
2022-11-21T15:20:54.979Z,9.85
2022-11-21T15:23:31.743Z,9.79
2022-11-21T15:26:01.688Z,9.75
2022-11-21T15:28:30.808Z,9.70
2022-11-21T15:31:21.617Z,9.63
2022-11-21T15:37:05.694Z,9.47
2022-11-21T15:39:35.910Z,9.42
2022-11-21T15:42:38.630Z,9.34
2022-11-21T15:45:26.885Z,9.26
2022-11-21T15:47:56.863Z,9.20
2022-11-21T15:50:26.335Z,9.13
2022-11-21T15:52:55.350Z,9.01
2022-11-21T15:55:29.156Z,8.93
2022-11-21T15:57:57.712Z,8.86
2022-11-21T16:00:26.199Z,8.80
2022-11-21T16:02:55.908Z,8.73
2022-11-21T16:05:24.472Z,8.69
2022-11-21T16:07:52.859Z,8.64
2022-11-21T16:10:27.489Z,8.58
2022-11-21T16:12:56.721Z,8.55
2022-11-21T16:15:25.162Z,8.52
2022-11-21T16:17:53.748Z,8.48
2022-11-21T16:20:23.552Z,8.44
2022-11-21T16:22:51.912Z,8.40
2022-11-21T16:25:20.373Z,8.35
2022-11-21T16:27:48.759Z,8.31
2022-11-21T16:30:17.429Z,8.27
2022-11-21T16:32:47.114Z,8.23
2022-11-21T16:35:15.798Z,8.20
2022-11-21T16:37:45.492Z,8.17
2022-11-21T16:40:14.020Z,8.14
2022-11-21T16:42:42.358Z,8.10
2022-11-21T16:45:11.621Z,8.08
2022-11-21T16:47:43.093Z,8.03
2022-11-21T16:50:15.834Z,8.00
2022-11-21T16:52:45.395Z,7.96
2022-11-21T16:55:14.304Z,7.94
2022-11-21T16:57:43.181Z,7.91
2022-11-21T17:00:13.094Z,7.89
2022-11-21T17:02:41.347Z,7.84
2022-11-21T17:05:10.564Z,7.83
2022-11-21T17:07:38.921Z,7.78
2022-11-21T17:10:09.848Z,7.75
2022-11-21T17:12:39.068Z,7.72
2022-11-21T17:15:10.225Z,7.69
2022-11-21T17:17:38.770Z,7.65
2022-11-21T17:20:09.986Z,7.62
2022-11-21T17:22:38.472Z,7.60
2022-11-21T17:25:09.516Z,7.55
2022-11-21T17:27:37.912Z,7.54
2022-11-21T17:30:07.710Z,7.51
2022-11-21T17:32:36.692Z,7.47
2022-11-21T17:35:06.309Z,7.45
2022-11-21T17:37:34.677Z,7.42
2022-11-21T17:40:02.992Z,7.38
2022-11-21T17:42:32.662Z,7.35
2022-11-21T17:45:00.923Z,7.34
2022-11-21T17:47:29.253Z,7.31
2022-11-21T17:50:02.533Z,7.30
2022-11-21T17:52:33.757Z,7.27
2022-11-21T17:55:02.258Z,7.25
2022-11-21T17:57:31.932Z,7.23
2022-11-21T18:00:00.220Z,7.20
2022-11-21T18:02:28.684Z,7.18
2022-11-21T18:04:57.077Z,7.17
2022-11-21T18:07:25.448Z,7.15
2022-11-21T18:09:53.766Z,7.13
2022-11-21T18:12:22.561Z,7.11
2022-11-21T18:14:52.259Z,7.08
2022-11-21T18:17:20.489Z,7.07
2022-11-21T18:19:48.795Z,7.04
2022-11-21T18:22:17.135Z,7.02
2022-11-21T18:24:45.408Z,7.00
2022-11-21T18:27:13.664Z,6.99
2022-11-21T18:29:41.982Z,6.97
2022-11-21T18:32:11.710Z,6.96
2022-11-21T18:34:40.168Z,6.95
2022-11-21T18:37:08.405Z,6.95
2022-11-21T18:39:36.713Z,6.94
2022-11-21T18:42:05.021Z,6.93
2022-11-21T18:44:33.270Z,6.91
2022-11-21T18:47:01.558Z,6.89
2022-11-21T18:49:31.533Z,6.86
2022-11-21T18:52:00.102Z,6.85
2022-11-21T18:54:28.361Z,6.82
2022-11-21T18:56:57.109Z,6.82
2022-11-21T18:59:25.412Z,6.80
2022-11-21T19:01:53.695Z,6.78
2022-11-21T19:04:22.080Z,6.78
2022-11-21T19:06:51.745Z,6.75
2022-11-21T19:09:20.008Z,6.73
2022-11-21T19:11:48.325Z,6.71
2022-11-21T19:14:16.635Z,6.69
2022-11-21T19:16:44.907Z,6.67
2022-11-21T19:22:06.323Z,6.64
2022-11-21T19:24:34.662Z,6.62
2022-11-21T19:27:03.043Z,6.61
2022-11-21T19:29:31.522Z,6.61
2022-11-21T19:32:00.392Z,6.59
2022-11-21T19:34:28.661Z,6.57
2022-11-21T19:36:56.931Z,6.55
2022-11-21T19:39:27.227Z,6.53
2022-11-21T19:41:55.822Z,6.51
2022-11-21T19:44:24.110Z,6.51
2022-11-21T19:46:52.415Z,6.49
2022-11-21T19:49:20.715Z,6.45
2022-11-21T19:51:49.059Z,6.43
2022-11-21T19:54:17.644Z,6.40
2022-11-21T19:56:47.251Z,6.40
2022-11-21T19:59:15.779Z,6.38
2022-11-21T20:01:48.115Z,6.37
2022-11-21T20:04:19.446Z,6.34
2022-11-21T20:06:47.836Z,6.32
2022-11-21T20:09:19.879Z,6.29
2022-11-21T20:11:52.348Z,6.26
2022-11-21T20:14:22.664Z,6.24
2022-11-21T20:16:53.809Z,6.22
2022-11-21T20:19:25.082Z,6.19
2022-11-21T20:21:53.855Z,6.17
2022-11-21T20:24:22.357Z,6.15
2022-11-21T20:26:52.067Z,6.14
2022-11-21T20:29:20.497Z,6.12
2022-11-21T20:31:49.026Z,6.12
2022-11-21T20:34:17.561Z,6.09
2022-11-21T20:36:46.751Z,6.07
2022-11-21T20:39:17.788Z,6.04
2022-11-21T20:41:48.121Z,6.04
2022-11-21T20:45:15.002Z,6.01
2022-11-21T20:47:09.524Z,5.98
2022-11-21T20:49:37.799Z,5.96
2022-11-21T20:54:55.239Z,5.92
2022-11-21T20:57:23.552Z,5.91
2022-11-21T20:59:53.152Z,5.91
2022-11-21T21:02:21.496Z,5.89
2022-11-21T21:04:49.782Z,5.88
2022-11-21T21:07:18.181Z,5.87
2022-11-21T21:09:46.517Z,5.86
2022-11-21T21:12:15.050Z,5.85
2022-11-21T21:14:43.318Z,5.83
2022-11-21T21:17:13.018Z,5.83
2022-11-21T21:19:41.317Z,5.81
2022-11-21T21:22:09.814Z,5.80
2022-11-21T21:24:38.147Z,5.82
2022-11-21T21:27:06.469Z,5.82
2022-11-21T21:29:34.712Z,5.82
2022-11-21T21:32:03.049Z,5.82
2022-11-21T21:34:33.442Z,5.82
2022-11-21T21:37:01.986Z,5.81
2022-11-21T21:39:30.247Z,5.81
2022-11-21T21:41:58.531Z,5.80
2022-11-21T21:44:32.804Z,5.81
2022-11-21T21:47:01.606Z,5.81
2022-11-21T21:49:30.052Z,5.80
2022-11-21T21:51:59.752Z,5.81
2022-11-21T21:54:28.201Z,5.81
2022-11-21T21:56:56.615Z,5.82
2022-11-21T21:59:25.697Z,5.83
2022-11-21T22:01:54.030Z,5.84
2022-11-21T22:04:22.644Z,5.86
2022-11-21T22:06:50.933Z,5.85
2022-11-21T22:09:20.726Z,5.86
2022-11-21T22:11:48.990Z,5.86
2022-11-21T22:14:18.136Z,5.88
2022-11-21T22:16:46.547Z,5.89
2022-11-21T22:19:15.537Z,5.89
2022-11-21T22:21:43.817Z,5.89
2022-11-21T22:24:25.482Z,5.89
2022-11-21T22:26:55.947Z,5.88
2022-11-21T22:29:24.294Z,5.90
2022-11-21T22:31:52.651Z,5.90
2022-11-21T22:34:21.120Z,5.91
2022-11-21T22:36:49.349Z,5.87
2022-11-21T22:39:18.023Z,5.88
2022-11-21T22:41:46.454Z,5.89
2022-11-21T22:44:16.961Z,5.88
2022-11-21T22:46:45.175Z,5.87
2022-11-21T22:49:14.347Z,5.87
2022-11-21T22:51:42.569Z,5.88
2022-11-21T22:54:11.022Z,5.90
2022-11-21T22:56:39.322Z,5.93
2022-11-21T22:59:07.826Z,5.93
2022-11-21T23:01:37.446Z,5.99
2022-11-21T23:04:06.027Z,6.01
2022-11-21T23:06:34.284Z,6.03
2022-11-21T23:09:02.568Z,6.07
2022-11-21T23:11:39.240Z,6.06
2022-11-21T23:14:09.161Z,6.07
2022-11-21T23:16:38.761Z,6.07
2022-11-21T23:19:07.188Z,6.09
2022-11-21T23:21:35.436Z,6.08
2022-11-21T23:24:03.730Z,6.09
2022-11-21T23:26:32.002Z,6.12
2022-11-21T23:29:05.082Z,6.09
2022-11-21T23:31:36.396Z,6.09
2022-11-21T23:34:06.498Z,6.07
2022-11-21T23:36:34.909Z,6.09
2022-11-21T23:39:03.128Z,6.07
2022-11-21T23:41:31.527Z,6.09
2022-11-21T23:44:00.276Z,6.09
2022-11-21T23:46:29.635Z,6.07
2022-11-21T23:48:58.012Z,6.08
2022-11-21T23:51:27.670Z,6.07
2022-11-21T23:53:55.881Z,6.06
2022-11-21T23:56:24.128Z,6.06
2022-11-21T23:58:53.520Z,6.06
